Time;durP1;ratioP1;P1;durP2;ratioP2;P2;SDS_P1;SDS_P2;PMS_P1;PMS_P2;Temp;Humidity;BMP_temperature;BMP_pressure;BME280_temperature;BME280_humidity;BME280_pressure;Samples;Min_cycle;Max_cycle;Signal;HPM_P1;HPM_P2
2022/08/19 00:01:19;;;;;;;;;;;21.20;99.90;;;;;;5047336;28;20379;-83
2022/08/19 00:03:44;;;;;;;;;;;21.10;99.90;;;;;;5032109;28;19913;-82
2022/08/19 00:06:10;;;;;;;;;;;21.10;99.90;;;;;;5031660;28;19909;-83
2022/08/19 00:08:36;;;;;;;;;;;21.10;99.90;;;;;;5031994;28;19913;-83
2022/08/19 00:11:01;;;;;;;;;;;21.20;99.90;;;;;;5031877;28;19909;-83
2022/08/19 00:13:28;;;;;;;;;;;21.20;99.90;;;;;;5047363;28;19909;-82
2022/08/19 00:15:54;;;;;;;;;;;21.20;99.90;;;;;;5046895;28;19962;-83
2022/08/19 00:18:20;;;;;;;;;;;21.20;99.90;;;;;;5031897;28;19952;-83
2022/08/19 00:20:45;;;;;;;;;;;21.20;99.90;;;;;;5031695;28;19952;-82
2022/08/19 00:23:10;;;;;;;;;;;21.20;99.90;;;;;;5031923;28;19916;-83
2022/08/19 00:25:36;;;;;;;;;;;21.20;99.90;;;;;;5048411;28;19909;-82
2022/08/19 00:28:02;;;;;;;;;;;21.20;99.90;;;;;;5050636;28;20380;-83
2022/08/19 00:30:28;;;;;;;;;;;21.20;99.90;;;;;;5050697;28;19948;-82
2022/08/19 00:32:56;;;;;;;;;;;21.20;99.90;;;;;;5050581;28;20360;-83
2022/08/19 00:35:22;;;;;;;;;;;21.20;99.90;;;;;;5035230;28;19917;-83
2022/08/19 00:37:48;;;;;;;;;;;21.20;99.90;;;;;;5034883;28;19909;-83
2022/08/19 00:40:14;;;;;;;;;;;21.20;99.90;;;;;;5050400;28;19909;-83
2022/08/19 00:42:39;;;;;;;;;;;21.10;99.90;;;;;;5050355;28;19917;-83
2022/08/19 00:45:10;;;;;;;;;;;21.10;99.90;;;;;;5050561;28;19909;-82
2022/08/19 00:47:35;;;;;;;;;;;21.10;99.90;;;;;;5049931;28;20391;-84
2022/08/19 00:50:01;;;;;;;;;;;21.00;99.90;;;;;;5034900;28;19917;-83
2022/08/19 00:52:28;;;;;;;;;;;21.10;99.90;;;;;;5050430;28;19909;-83
2022/08/19 00:54:54;;;;;;;;;;;21.10;99.90;;;;;;5050121;28;19920;-82
2022/08/19 00:57:22;;;;;;;;;;;21.10;99.90;;;;;;5049926;28;19935;-82
2022/08/19 00:59:52;;;;;;;;;;;21.00;99.90;;;;;;5076278;22;19963;-75
2022/08/19 01:02:18;;;;;;;;;;;21.00;99.90;;;;;;5044819;28;19967;-75
2022/08/19 01:04:43;;;;;;;;;;;21.00;99.90;;;;;;5044580;28;20228;-75
2022/08/19 01:07:09;;;;;;;;;;;20.90;99.90;;;;;;5044691;28;19909;-76
2022/08/19 01:09:35;;;;;;;;;;;20.90;99.90;;;;;;5050066;28;19996;-75
2022/08/19 01:12:00;;;;;;;;;;;20.90;99.90;;;;;;5044374;28;19909;-75
2022/08/19 01:14:26;;;;;;;;;;;20.90;99.90;;;;;;5044526;28;20272;-76
2022/08/19 01:16:54;;;;;;;;;;;20.80;99.90;;;;;;5052772;28;19931;-75
2022/08/19 01:19:23;;;;;;;;;;;20.80;99.90;;;;;;5052710;28;19962;-75
2022/08/19 01:21:55;;;;;;;;;;;20.80;99.90;;;;;;5052845;28;20283;-76
2022/08/19 01:24:21;;;;;;;;;;;20.80;99.90;;;;;;5052911;28;19909;-75
2022/08/19 01:26:47;;;;;;;;;;;20.80;99.90;;;;;;5052531;28;19932;-75
2022/08/19 01:29:13;;;;;;;;;;;20.80;99.90;;;;;;5052689;28;19908;-76
2022/08/19 01:31:39;;;;;;;;;;;20.80;99.90;;;;;;5052494;28;20319;-76
2022/08/19 01:34:05;;;;;;;;;;;20.80;99.90;;;;;;5052616;28;20195;-75
2022/08/19 01:36:34;;;;;;;;;;;20.70;99.90;;;;;;5051630;28;20348;-76
2022/08/19 01:39:00;;;;;;;;;;;20.70;99.90;;;;;;5053121;28;20354;-75
2022/08/19 01:41:26;;;;;;;;;;;20.60;99.90;;;;;;5052377;28;19909;-75
2022/08/19 01:43:52;;;;;;;;;;;20.60;99.90;;;;;;5052416;28;19931;-76
2022/08/19 01:46:18;;;;;;;;;;;20.60;99.90;;;;;;5052191;28;19913;-75
2022/08/19 01:48:45;;;;;;;;;;;20.60;99.90;;;;;;5052225;28;19931;-75
2022/08/19 01:51:11;;;;;;;;;;;20.60;99.90;;;;;;5052348;28;20371;-75
2022/08/19 01:53:36;;;;;;;;;;;20.60;99.90;;;;;;5052159;28;19952;-75
2022/08/19 01:56:03;;;;;;;;;;;20.50;99.90;;;;;;5052120;28;19913;-75
2022/08/19 01:58:38;;;;;;;;;;;20.50;99.90;;;;;;5051786;28;19943;-75
2022/08/19 02:01:04;;;;;;;;;;;20.50;99.90;;;;;;5052065;28;19908;-75
2022/08/19 02:03:29;;;;;;;;;;;20.50;99.90;;;;;;5051904;28;20329;-75
2022/08/19 02:05:57;;;;;;;;;;;20.50;99.90;;;;;;5051913;28;19996;-75
2022/08/19 02:08:23;;;;;;;;;;;20.50;99.90;;;;;;5051790;28;19916;-75
2022/08/19 02:10:49;;;;;;;;;;;20.50;99.90;;;;;;5051869;28;19913;-75
2022/08/19 02:13:15;;;;;;;;;;;20.40;99.90;;;;;;5051845;28;19960;-75
2022/08/19 02:15:41;;;;;;;;;;;20.40;99.90;;;;;;5051509;28;20014;-75
2022/08/19 02:18:07;;;;;;;;;;;20.40;99.90;;;;;;5051650;28;19944;-75
2022/08/19 02:20:32;;;;;;;;;;;20.40;99.90;;;;;;5051542;28;19909;-75
2022/08/19 02:22:58;;;;;;;;;;;20.40;99.90;;;;;;5051699;28;19917;-75
2022/08/19 02:25:23;;;;;;;;;;;20.30;99.90;;;;;;5051539;28;19909;-75
2022/08/19 02:27:53;;;;;;;;;;;20.30;99.90;;;;;;5051339;28;19908;-75
2022/08/19 02:30:19;;;;;;;;;;;20.30;99.90;;;;;;5051489;28;19912;-75
2022/08/19 02:32:45;;;;;;;;;;;20.20;99.90;;;;;;5051501;28;19908;-75
2022/08/19 02:35:12;;;;;;;;;;;20.20;99.90;;;;;;5051293;28;19963;-75
2022/08/19 02:40:24;;;;;;;;;;;20.20;99.90;;;;;;5041222;28;19908;-75
2022/08/19 02:42:49;;;;;;;;;;;20.20;99.90;;;;;;5051538;28;19909;-75
2022/08/19 02:45:15;;;;;;;;;;;20.10;99.90;;;;;;5051282;28;19909;-75
2022/08/19 02:47:40;;;;;;;;;;;20.10;99.90;;;;;;5050898;28;19908;-75
2022/08/19 02:50:06;;;;;;;;;;;20.10;99.90;;;;;;5051097;28;19909;-76
2022/08/19 02:52:33;;;;;;;;;;;20.10;99.90;;;;;;5051080;28;19909;-75
2022/08/19 02:54:59;;;;;;;;;;;20.10;99.90;;;;;;5050892;28;20054;-75
2022/08/19 02:57:25;;;;;;;;;;;20.10;99.90;;;;;;5050999;28;19952;-76
2022/08/19 02:59:52;;;;;;;;;;;20.00;99.90;;;;;;5051043;28;19971;-76
2022/08/19 03:02:17;;;;;;;;;;;20.00;99.90;;;;;;5050979;28;20278;-75
2022/08/19 03:04:46;;;;;;;;;;;20.10;99.90;;;;;;5051065;28;19952;-75
2022/08/19 03:07:16;;;;;;;;;;;20.10;99.90;;;;;;5050931;28;20230;-76
2022/08/19 03:09:45;;;;;;;;;;;20.10;99.90;;;;;;5050803;28;20359;-76
2022/08/19 03:12:10;;;;;;;;;;;20.00;99.90;;;;;;5050660;28;19920;-75
2022/08/19 03:14:37;;;;;;;;;;;20.00;99.90;;;;;;5042385;28;19913;-75
2022/08/19 03:17:04;;;;;;;;;;;20.00;99.90;;;;;;5042440;28;19909;-76
2022/08/19 03:19:31;;;;;;;;;;;20.00;99.90;;;;;;5050804;28;19909;-75
2022/08/19 03:21:56;;;;;;;;;;;20.10;99.90;;;;;;5050766;28;19908;-75
2022/08/19 03:24:22;;;;;;;;;;;20.00;99.90;;;;;;5050720;28;19920;-75
2022/08/19 03:26:50;;;;;;;;;;;20.00;99.90;;;;;;5050648;28;19917;-75
2022/08/19 03:29:16;;;;;;;;;;;20.10;99.90;;;;;;5050580;28;19915;-74
2022/08/19 03:31:43;;;;;;;;;;;20.10;99.90;;;;;;5050762;28;20253;-75
2022/08/19 03:34:11;;;;;;;;;;;20.10;99.90;;;;;;5050567;28;19917;-75
2022/08/19 03:36:37;;;;;;;;;;;20.10;99.90;;;;;;5050445;28;20355;-75
2022/08/19 03:39:03;;;;;;;;;;;20.10;99.90;;;;;;5050651;28;20269;-75
2022/08/19 03:41:31;;;;;;;;;;;20.10;99.90;;;;;;5050624;28;19908;-75
2022/08/19 03:43:57;;;;;;;;;;;20.00;99.90;;;;;;5050648;28;19908;-76
2022/08/19 03:46:27;;;;;;;;;;;20.00;99.90;;;;;;5050291;28;19908;-75
2022/08/19 03:48:54;;;;;;;;;;;20.00;99.90;;;;;;5050528;28;19920;-74
2022/08/19 03:51:24;;;;;;;;;;;20.00;99.90;;;;;;5050356;28;19915;-75
2022/08/19 03:53:50;;;;;;;;;;;20.00;99.90;;;;;;5050495;28;19916;-75
2022/08/19 03:56:16;;;;;;;;;;;20.00;99.90;;;;;;5050270;28;19909;-75
2022/08/19 03:58:42;;;;;;;;;;;20.00;99.90;;;;;;5050276;28;19917;-75
2022/08/19 04:01:09;;;;;;;;;;;20.00;99.90;;;;;;5052561;28;20006;-74
2022/08/19 04:03:35;;;;;;;;;;;20.00;99.90;;;;;;5054261;28;19909;-75
2022/08/19 04:06:15;;;;;;;;;;;20.00;99.90;;;;;;5054098;28;19941;-75
2022/08/19 04:08:41;;;;;;;;;;;20.00;99.90;;;;;;5054079;28;20287;-75
2022/08/19 04:11:11;;;;;;;;;;;20.00;99.90;;;;;;5054181;28;20364;-75
2022/08/19 04:13:38;;;;;;;;;;;19.90;99.90;;;;;;5054076;28;20451;-78
2022/08/19 04:16:04;;;;;;;;;;;19.90;99.90;;;;;;5056015;28;19913;-78
2022/08/19 04:18:33;;;;;;;;;;;19.90;99.90;;;;;;5054465;28;19924;-78
2022/08/19 04:20:59;;;;;;;;;;;19.90;99.90;;;;;;5056004;28;19963;-77
2022/08/19 04:23:25;;;;;;;;;;;19.80;99.90;;;;;;5055920;28;19913;-77
2022/08/19 04:25:50;;;;;;;;;;;19.80;99.90;;;;;;5055627;28;19909;-77
2022/08/19 04:28:16;;;;;;;;;;;19.80;99.90;;;;;;5054890;28;19909;-77
2022/08/19 04:30:43;;;;;;;;;;;19.80;99.90;;;;;;5056404;28;19955;-77
2022/08/19 04:33:09;;;;;;;;;;;19.80;99.90;;;;;;5054149;28;20338;-77
2022/08/19 04:35:37;;;;;;;;;;;19.80;99.90;;;;;;5053775;28;20380;-78
2022/08/19 04:38:03;;;;;;;;;;;19.80;99.90;;;;;;5054132;28;19909;-78
2022/08/19 04:43:15;;;;;;;;;;;19.80;99.90;;;;;;5055548;28;19916;-77
2022/08/19 04:45:43;;;;;;;;;;;19.90;99.90;;;;;;5054105;28;19958;-77
2022/08/19 04:48:09;;;;;;;;;;;19.90;99.90;;;;;;5054555;28;19913;-77
2022/08/19 04:50:35;;;;;;;;;;;19.90;99.90;;;;;;5054483;28;19916;-78
2022/08/19 04:53:01;;;;;;;;;;;19.90;99.90;;;;;;5054290;28;19909;-77
2022/08/19 04:55:26;;;;;;;;;;;19.90;99.90;;;;;;5054365;28;19919;-78
2022/08/19 04:57:53;;;;;;;;;;;19.90;99.90;;;;;;5054393;28;19993;-77
2022/08/19 05:00:18;;;;;;;;;;;19.90;99.90;;;;;;5054538;28;19929;-77
2022/08/19 05:02:49;;;;;;;;;;;19.90;99.90;;;;;;5054389;28;20383;-78
2022/08/19 05:05:14;;;;;;;;;;;20.00;99.90;;;;;;5055233;28;19909;-77
2022/08/19 05:07:40;;;;;;;;;;;20.00;99.90;;;;;;5054834;28;19955;-77
2022/08/19 05:10:07;;;;;;;;;;;20.00;99.90;;;;;;5054644;28;20322;-78
2022/08/19 05:12:32;;;;;;;;;;;20.00;99.90;;;;;;5054239;28;19916;-77
2022/08/19 05:14:58;;;;;;;;;;;20.00;99.90;;;;;;5054265;28;19917;-77
2022/08/19 05:17:25;;;;;;;;;;;20.00;99.90;;;;;;5054379;28;19959;-77
2022/08/19 05:22:35;;;;;;;;;;;20.10;99.90;;;;;;5057274;28;19915;-77
2022/08/19 05:25:06;;;;;;;;;;;20.10;99.90;;;;;;5060566;28;19976;-78
2022/08/19 05:27:32;;;;;;;;;;;20.10;99.90;;;;;;5060493;28;19955;-77
2022/08/19 05:29:58;;;;;;;;;;;20.20;99.90;;;;;;5047332;28;19917;-77
2022/08/19 05:32:24;;;;;;;;;;;20.20;99.90;;;;;;5042218;28;20355;-77
2022/08/19 05:34:52;;;;;;;;;;;20.30;99.90;;;;;;5022556;28;22358;-77
2022/08/19 05:37:17;;;;;;;;;;;20.30;99.90;;;;;;5034947;28;19917;-78
2022/08/19 05:39:43;;;;;;;;;;;20.40;99.90;;;;;;5034553;28;19971;-77
2022/08/19 05:42:12;;;;;;;;;;;20.50;99.90;;;;;;5038522;28;19909;-79
2022/08/19 05:44:42;;;;;;;;;;;20.50;99.90;;;;;;5040071;28;20285;-78
2022/08/19 05:47:08;;;;;;;;;;;20.60;99.90;;;;;;5033768;28;19921;-77
2022/08/19 05:49:34;;;;;;;;;;;20.60;99.90;;;;;;5032277;28;19909;-77
2022/08/19 05:52:05;;;;;;;;;;;20.50;99.90;;;;;;5037108;28;19909;-78
2022/08/19 05:54:31;;;;;;;;;;;20.60;99.90;;;;;;5041265;28;20377;-79
2022/08/19 05:56:57;;;;;;;;;;;20.60;99.90;;;;;;5041333;28;20007;-79
2022/08/19 05:59:23;;;;;;;;;;;20.60;99.90;;;;;;5033159;28;20019;-77
2022/08/19 06:01:54;;;;;;;;;;;20.70;99.90;;;;;;5040784;28;20135;-78
2022/08/19 06:04:19;;;;;;;;;;;20.70;99.90;;;;;;5043728;28;19932;-76
2022/08/19 06:06:46;;;;;;;;;;;20.80;99.90;;;;;;5049527;28;19913;-76
2022/08/19 06:09:12;;;;;;;;;;;20.80;99.90;;;;;;5043895;28;19909;-77
2022/08/19 06:11:40;;;;;;;;;;;20.90;99.90;;;;;;5051706;28;19913;-77
2022/08/19 06:14:10;;;;;;;;;;;21.00;99.90;;;;;;5051978;28;19913;-77
2022/08/19 06:16:38;;;;;;;;;;;21.10;99.90;;;;;;5051470;28;20370;-77
2022/08/19 06:19:06;;;;;;;;;;;21.10;99.90;;;;;;5051851;28;20004;-77
2022/08/19 06:21:32;;;;;;;;;;;21.10;99.90;;;;;;5051939;28;20372;-77
2022/08/19 06:23:59;;;;;;;;;;;21.20;99.90;;;;;;5051440;28;20441;-77
2022/08/19 06:26:26;;;;;;;;;;;21.20;99.90;;;;;;5043185;28;19909;-77
2022/08/19 06:28:52;;;;;;;;;;;21.20;99.90;;;;;;5051738;28;20280;-77
2022/08/19 06:31:20;;;;;;;;;;;21.20;99.90;;;;;;5051380;28;20029;-77
2022/08/19 06:33:46;;;;;;;;;;;21.20;99.90;;;;;;5045625;28;20514;-77
2022/08/19 06:36:27;;;;;;;;;;;21.20;99.90;;;;;;5039096;28;20012;-77
2022/08/19 06:38:53;;;;;;;;;;;21.10;99.90;;;;;;5051888;28;19916;-77
2022/08/19 06:41:18;;;;;;;;;;;21.10;99.90;;;;;;5040474;28;19936;-78
2022/08/19 06:43:44;;;;;;;;;;;21.10;99.90;;;;;;5047930;28;20380;-81
2022/08/19 06:46:11;;;;;;;;;;;21.10;99.90;;;;;;5047109;28;19909;-77
2022/08/19 06:48:37;;;;;;;;;;;21.20;99.90;;;;;;5051144;28;19908;-77
2022/08/19 06:51:05;;;;;;;;;;;21.10;99.90;;;;;;5051706;28;19916;-77
2022/08/19 06:53:30;;;;;;;;;;;21.00;99.90;;;;;;5051339;28;19917;-77
2022/08/19 06:56:00;;;;;;;;;;;21.00;99.90;;;;;;5051296;28;19943;-77
2022/08/19 06:58:25;;;;;;;;;;;20.90;99.90;;;;;;5038198;28;19935;-78
2022/08/19 07:00:51;;;;;;;;;;;20.90;99.90;;;;;;5053591;22;19913;-88
2022/08/19 07:03:17;;;;;;;;;;;20.80;99.90;;;;;;5053453;28;19916;-87
2022/08/19 07:05:43;;;;;;;;;;;20.70;99.90;;;;;;5053941;28;19912;-88
2022/08/19 07:08:09;;;;;;;;;;;20.70;99.90;;;;;;5054260;28;20300;-87
2022/08/19 07:10:36;;;;;;;;;;;20.70;99.90;;;;;;5081362;28;19948;-87
2022/08/19 07:13:03;;;;;;;;;;;20.70;99.90;;;;;;5071075;28;19909;-87
2022/08/19 07:15:28;;;;;;;;;;;20.70;99.90;;;;;;5070396;28;20459;-87
2022/08/19 07:17:54;;;;;;;;;;;20.70;99.90;;;;;;5064512;28;19955;-87
2022/08/19 07:20:19;;;;;;;;;;;20.80;99.90;;;;;;5062145;28;19909;-87
2022/08/19 07:22:45;;;;;;;;;;;20.80;99.90;;;;;;5065986;28;19924;-87
2022/08/19 07:25:13;;;;;;;;;;;20.90;99.90;;;;;;5058855;28;19912;-87
2022/08/19 07:27:38;;;;;;;;;;;21.00;99.90;;;;;;5061695;28;19915;-87
2022/08/19 07:30:04;;;;;;;;;;;21.00;99.90;;;;;;5070720;28;20011;-86
2022/08/19 07:32:30;;;;;;;;;;;21.00;99.90;;;;;;5071198;28;19962;-87
2022/08/19 07:34:56;;;;;;;;;;;21.10;99.90;;;;;;5071397;28;20373;-87
2022/08/19 07:37:22;;;;;;;;;;;21.10;99.90;;;;;;5074883;28;19909;-87
2022/08/19 07:39:47;;;;;;;;;;;21.20;99.90;;;;;;5074974;28;19909;-88
2022/08/19 07:42:14;;;;;;;;;;;21.20;99.90;;;;;;5074499;28;19919;-87
2022/08/19 07:44:40;;;;;;;;;;;21.30;99.90;;;;;;5074911;28;19908;-87
2022/08/19 07:47:06;;;;;;;;;;;21.30;99.90;;;;;;5074513;28;20384;-87
2022/08/19 07:49:32;;;;;;;;;;;21.40;99.90;;;;;;5070805;28;19952;-87
2022/08/19 07:52:01;;;;;;;;;;;21.40;99.90;;;;;;5071219;28;20366;-88
2022/08/19 07:54:27;;;;;;;;;;;21.60;99.90;;;;;;5071433;28;19913;-87
2022/08/19 07:56:53;;;;;;;;;;;21.80;99.90;;;;;;5071144;28;19916;-88
2022/08/19 07:59:19;;;;;;;;;;;22.10;99.90;;;;;;5070914;28;19909;-87
2022/08/19 08:01:44;;;;;;;;;;;22.40;99.90;;;;;;5071010;28;19917;-87
2022/08/19 08:09:41;;;;;;;;;;;23.20;99.90;;;;;;5055887;28;20395;-87
2022/08/19 08:12:10;;;;;;;;;;;23.20;99.90;;;;;;5071082;28;19909;-87
2022/08/19 08:14:41;;;;;;;;;;;23.20;99.90;;;;;;5070801;28;19913;-87
2022/08/19 08:17:06;;;;;;;;;;;23.40;99.90;;;;;;5060664;28;20424;-87
2022/08/19 08:19:32;;;;;;;;;;;23.50;99.90;;;;;;5070083;28;19955;-87
2022/08/19 08:21:59;;;;;;;;;;;23.60;99.90;;;;;;5074014;28;20293;-86
2022/08/19 08:24:26;;;;;;;;;;;23.70;99.90;;;;;;5074070;28;19920;-88
2022/08/19 08:26:51;;;;;;;;;;;24.00;99.90;;;;;;5074054;28;19932;-86
2022/08/19 08:29:19;;;;;;;;;;;24.30;99.90;;;;;;5073184;28;20361;-87
2022/08/19 08:31:45;;;;;;;;;;;24.80;99.90;;;;;;5074362;28;20277;-87
2022/08/19 08:34:11;;;;;;;;;;;25.20;99.90;;;;;;5074248;28;19908;-87
2022/08/19 08:36:41;;;;;;;;;;;25.50;99.90;;;;;;5074272;28;19909;-87
2022/08/19 08:39:07;;;;;;;;;;;25.40;99.90;;;;;;5074346;28;20269;-87
2022/08/19 08:41:53;;;;;;;;;;;25.50;99.90;;;;;;5074088;28;19913;-87
2022/08/19 08:44:42;;;;;;;;;;;25.90;99.90;;;;;;5068796;28;20081;-87
2022/08/19 08:47:13;;;;;;;;;;;26.20;99.90;;;;;;5067967;28;19966;-88
2022/08/19 08:49:51;;;;;;;;;;;26.70;99.90;;;;;;5073910;28;19913;-88
2022/08/19 08:52:22;;;;;;;;;;;26.70;99.90;;;;;;5073738;28;19908;-87
2022/08/19 08:54:50;;;;;;;;;;;26.50;99.90;;;;;;5073317;28;20303;-88
2022/08/19 08:57:45;;;;;;;;;;;26.10;99.90;;;;;;5073496;28;19916;-87
2022/08/19 09:00:14;;;;;;;;;;;25.90;99.90;;;;;;5064286;28;19988;-87
2022/08/19 09:02:39;;;;;;;;;;;25.90;99.90;;;;;;5073605;28;19917;-88
2022/08/19 09:05:05;;;;;;;;;;;26.00;99.90;;;;;;5073554;28;20008;-87
2022/08/19 09:07:50;;;;;;;;;;;26.10;99.90;;;;;;5072905;28;19955;-88
2022/08/19 09:10:21;;;;;;;;;;;26.10;99.90;;;;;;5073331;28;19909;-88
2022/08/19 09:13:06;;;;;;;;;;;26.20;99.90;;;;;;5073562;28;19908;-87
2022/08/19 09:15:38;;;;;;;;;;;26.30;99.90;;;;;;5073109;28;20372;-88
2022/08/19 09:18:04;;;;;;;;;;;26.60;99.90;;;;;;5073320;28;19966;-88
2022/08/19 09:20:31;;;;;;;;;;;27.00;99.90;;;;;;5072469;28;19939;-88
2022/08/19 09:22:58;;;;;;;;;;;27.10;99.90;;;;;;5073295;28;19913;-87
2022/08/19 09:25:24;;;;;;;;;;;26.90;99.90;;;;;;5070781;28;19916;-87
2022/08/19 09:27:51;;;;;;;;;;;26.90;99.90;;;;;;5072680;28;19958;-87
2022/08/19 09:30:19;;;;;;;;;;;27.20;99.90;;;;;;5072828;28;19908;-87
2022/08/19 09:32:45;;;;;;;;;;;27.70;99.90;;;;;;5072882;28;20377;-87
2022/08/19 09:35:12;;;;;;;;;;;28.60;99.90;;;;;;5072564;28;19959;-87
2022/08/19 09:37:37;;;;;;;;;;;29.00;99.90;;;;;;5072836;28;20341;-88
2022/08/19 09:40:03;;;;;;;;;;;29.50;99.90;;;;;;5072852;28;20007;-88
2022/08/19 09:42:29;;;;;;;;;;;29.90;99.90;;;;;;5072506;28;20301;-87
2022/08/19 09:44:55;;;;;;;;;;;30.70;99.90;;;;;;5072191;28;19916;-87
2022/08/19 09:47:20;;;;;;;;;;;31.20;99.90;;;;;;5072557;28;20332;-88
2022/08/19 09:49:48;;;;;;;;;;;31.30;99.90;;;;;;5072728;28;19913;-88
2022/08/19 09:52:15;;;;;;;;;;;31.50;99.90;;;;;;5071567;28;19909;-88
2022/08/19 09:54:40;;;;;;;;;;;32.00;99.90;;;;;;5067613;28;19923;-88
2022/08/19 09:57:06;;;;;;;;;;;32.80;99.90;;;;;;5063009;28;19909;-88
2022/08/19 09:59:32;;;;;;;;;;;33.20;97.80;;;;;;5052648;28;19917;-88
2022/08/19 10:01:57;;;;;;;;;;;32.90;94.60;;;;;;5051823;28;20455;-88
2022/08/19 10:05:47;;;;;;;;;;;31.90;96.40;;;;;;5052340;28;19921;-88
2022/08/19 10:07:08;;;;;;;;;;;31.20;96.50;;;;;;5052970;28;19915;-88
2022/08/19 10:09:34;;;;;;;;;;;30.60;97.60;;;;;;5051995;28;19909;-87
2022/08/19 10:12:00;;;;;;;;;;;30.80;99.10;;;;;;5052128;28;19913;-88
2022/08/19 10:14:27;;;;;;;;;;;30.60;98.00;;;;;;5052287;28;20011;-88
2022/08/19 10:16:52;;;;;;;;;;;30.60;97.70;;;;;;5051499;28;19955;-87
2022/08/19 10:19:20;;;;;;;;;;;30.00;98.90;;;;;;5053502;28;19952;-87
2022/08/19 10:21:45;;;;;;;;;;;29.60;99.80;;;;;;5066710;28;20007;-88
2022/08/19 10:24:11;;;;;;;;;;;29.30;99.90;;;;;;5051805;28;19959;-87
2022/08/19 10:26:38;;;;;;;;;;;29.30;99.90;;;;;;5051655;28;20050;-87
2022/08/19 10:29:05;;;;;;;;;;;29.40;99.90;;;;;;5051644;28;19956;-87
2022/08/19 10:31:31;;;;;;;;;;;29.60;99.90;;;;;;5051815;28;19913;-88
2022/08/19 10:33:58;;;;;;;;;;;29.70;99.90;;;;;;5051960;28;19909;-88
2022/08/19 10:36:27;;;;;;;;;;;29.80;99.90;;;;;;5051455;28;19958;-87
2022/08/19 10:38:54;;;;;;;;;;;29.80;99.90;;;;;;5051682;28;19913;-88
2022/08/19 10:41:22;;;;;;;;;;;29.40;99.90;;;;;;5051616;28;19909;-87
2022/08/19 10:43:50;;;;;;;;;;;29.10;99.90;;;;;;5051659;28;19909;-88
2022/08/19 10:46:16;;;;;;;;;;;28.90;99.90;;;;;;5051357;28;19908;-87
2022/08/19 10:48:42;;;;;;;;;;;28.70;99.90;;;;;;5051679;28;19908;-87
2022/08/19 10:53:51;;;;;;;;;;;28.70;99.90;;;;;;5053189;28;19962;-87
2022/08/19 10:59:03;;;;;;;;;;;28.60;99.90;;;;;;5053081;28;19931;-87
2022/08/19 11:01:30;;;;;;;;;;;28.60;99.90;;;;;;5051281;28;19917;-88
2022/08/19 11:03:57;;;;;;;;;;;28.30;99.90;;;;;;5065425;28;19944;-87
2022/08/19 11:06:22;;;;;;;;;;;28.30;99.90;;;;;;5058229;28;20007;-87
2022/08/19 11:08:48;;;;;;;;;;;28.40;99.90;;;;;;5057462;28;20034;-87
2022/08/19 11:11:13;;;;;;;;;;;28.40;99.90;;;;;;5058104;28;20412;-88
2022/08/19 11:13:40;;;;;;;;;;;28.60;99.90;;;;;;5068236;28;19919;-88
2022/08/19 11:16:08;;;;;;;;;;;28.40;99.90;;;;;;5062440;28;20297;-88
2022/08/19 11:18:38;;;;;;;;;;;28.30;99.90;;;;;;5059309;28;19909;-87
2022/08/19 11:21:24;;;;;;;;;;;28.40;99.90;;;;;;5064790;28;19913;-87
2022/08/19 11:23:51;;;;;;;;;;;28.40;99.90;;;;;;5064069;28;19913;-88
2022/08/19 11:26:17;;;;;;;;;;;28.30;99.90;;;;;;5070696;28;19908;-87
2022/08/19 11:28:43;;;;;;;;;;;28.30;99.90;;;;;;5070909;28;19936;-88
2022/08/19 11:31:09;;;;;;;;;;;28.20;99.90;;;;;;5054908;28;20366;-88
2022/08/19 11:33:35;;;;;;;;;;;28.10;99.90;;;;;;5050961;28;19951;-89
2022/08/19 11:36:02;;;;;;;;;;;28.10;99.90;;;;;;5050469;28;19960;-88
2022/08/19 11:38:27;;;;;;;;;;;28.10;99.90;;;;;;5056103;28;19920;-88
2022/08/19 11:40:54;;;;;;;;;;;28.00;99.90;;;;;;5070681;28;20258;-88
2022/08/19 11:43:20;;;;;;;;;;;28.20;99.90;;;;;;5070864;28;19916;-87
2022/08/19 11:45:48;;;;;;;;;;;28.10;99.90;;;;;;5070697;28;20281;-88
2022/08/19 11:48:14;;;;;;;;;;;28.00;99.90;;;;;;5070592;28;19909;-87
2022/08/19 11:50:41;;;;;;;;;;;28.00;99.90;;;;;;5062350;28;19940;-87
2022/08/19 11:53:06;;;;;;;;;;;28.00;99.90;;;;;;5070722;28;20005;-88
2022/08/19 11:55:32;;;;;;;;;;;28.00;99.90;;;;;;5070649;28;20412;-88
2022/08/19 11:57:57;;;;;;;;;;;28.10;99.90;;;;;;5070654;28;19908;-87
2022/08/19 12:00:23;;;;;;;;;;;28.20;99.90;;;;;;5070792;28;20281;-88
2022/08/19 12:02:48;;;;;;;;;;;28.30;99.90;;;;;;5062341;28;19917;-88
2022/08/19 12:05:14;;;;;;;;;;;28.50;99.90;;;;;;5060539;28;19912;-87
2022/08/19 12:07:43;;;;;;;;;;;28.90;99.90;;;;;;5070242;28;19916;-87
2022/08/19 12:10:09;;;;;;;;;;;29.30;99.90;;;;;;5070352;28;20340;-87
2022/08/19 12:12:34;;;;;;;;;;;29.10;99.80;;;;;;5070450;28;19950;-87
2022/08/19 12:15:03;;;;;;;;;;;29.10;99.90;;;;;;5062252;28;19917;-88
2022/08/19 12:17:30;;;;;;;;;;;29.10;99.90;;;;;;5050397;28;19909;-88
2022/08/19 12:19:56;;;;;;;;;;;29.20;99.90;;;;;;5050310;28;19909;-88
2022/08/19 12:22:21;;;;;;;;;;;29.30;99.90;;;;;;5053023;28;19916;-87
2022/08/19 12:24:48;;;;;;;;;;;29.40;99.90;;;;;;5053980;28;19909;-88
2022/08/19 12:27:13;;;;;;;;;;;29.60;99.30;;;;;;5053246;28;19915;-88
2022/08/19 12:29:39;;;;;;;;;;;29.70;98.50;;;;;;5053910;28;19996;-88
2022/08/19 12:32:05;;;;;;;;;;;29.70;97.50;;;;;;5053715;28;19944;-88
2022/08/19 12:34:31;;;;;;;;;;;29.70;97.80;;;;;;5053874;28;19917;-88
2022/08/19 12:36:58;;;;;;;;;;;30.00;96.70;;;;;;5053547;28;20007;-88
2022/08/19 12:39:24;;;;;;;;;;;30.10;95.70;;;;;;5053366;28;20385;-88
2022/08/19 12:41:49;;;;;;;;;;;29.90;95.50;;;;;;5053879;28;19916;-88
2022/08/19 12:44:15;;;;;;;;;;;29.80;95.20;;;;;;5053719;28;19909;-88
2022/08/19 12:46:41;;;;;;;;;;;29.70;93.70;;;;;;5052856;28;19909;-88
2022/08/19 12:49:06;;;;;;;;;;;29.50;95.50;;;;;;5053420;28;19916;-88
2022/08/19 12:51:32;;;;;;;;;;;29.50;95.80;;;;;;5053135;28;19913;-87
2022/08/19 12:53:59;;;;;;;;;;;29.50;97.90;;;;;;5053430;28;19908;-88
2022/08/19 12:56:24;;;;;;;;;;;29.60;96.70;;;;;;5052957;28;19913;-87
2022/08/19 12:58:50;;;;;;;;;;;29.60;95.90;;;;;;5053455;28;19912;-88
2022/08/19 13:01:16;;;;;;;;;;;29.70;97.30;;;;;;5052811;28;20254;-88
2022/08/19 13:03:42;;;;;;;;;;;29.60;94.20;;;;;;5052867;28;19913;-88
2022/08/19 13:06:08;;;;;;;;;;;29.40;93.30;;;;;;5053143;28;19915;-88
2022/08/19 13:08:34;;;;;;;;;;;29.40;93.30;;;;;;5053022;28;19913;-88
2022/08/19 13:11:07;;;;;;;;;;;29.20;93.70;;;;;;5053120;28;19920;-87
2022/08/19 13:13:32;;;;;;;;;;;29.10;92.60;;;;;;5053098;28;20007;-88
2022/08/19 13:16:01;;;;;;;;;;;29.20;94.20;;;;;;5052339;28;20003;-87
2022/08/19 13:18:27;;;;;;;;;;;29.20;93.30;;;;;;5052699;28;19916;-88
2022/08/19 13:20:52;;;;;;;;;;;29.20;92.30;;;;;;5052844;28;19913;-88
2022/08/19 13:23:18;;;;;;;;;;;29.30;94.40;;;;;;5053440;28;19921;-88
2022/08/19 13:25:44;;;;;;;;;;;29.40;91.60;;;;;;5065723;28;20014;-88
2022/08/19 13:28:09;;;;;;;;;;;29.40;92.10;;;;;;5070150;28;19999;-88
2022/08/19 13:33:19;;;;;;;;;;;29.40;91.30;;;;;;5058298;28;20388;-86
2022/08/19 13:35:47;;;;;;;;;;;29.50;91.30;;;;;;5074499;28;19974;-87
2022/08/19 13:38:13;;;;;;;;;;;29.60;89.90;;;;;;5074955;28;19919;-87
2022/08/19 13:40:40;;;;;;;;;;;29.70;91.40;;;;;;5074378;28;19916;-87
2022/08/19 13:43:06;;;;;;;;;;;29.60;90.90;;;;;;5073732;28;19908;-87
2022/08/19 13:45:35;;;;;;;;;;;29.60;91.70;;;;;;5070087;28;19915;-88
2022/08/19 13:48:06;;;;;;;;;;;29.70;91.20;;;;;;5074260;28;19913;-87
2022/08/19 13:50:33;;;;;;;;;;;29.80;90.40;;;;;;5064880;28;19915;-87
2022/08/19 13:52:59;;;;;;;;;;;29.80;90.60;;;;;;5056855;28;19912;-87
2022/08/19 13:55:25;;;;;;;;;;;29.90;90.40;;;;;;5070286;28;19919;-86
2022/08/19 13:57:52;;;;;;;;;;;29.80;90.80;;;;;;5071163;28;19966;-87
2022/08/19 14:00:19;;;;;;;;;;;29.80;91.10;;;;;;5083769;22;20028;-81
2022/08/19 14:02:45;;;;;;;;;;;29.70;91.40;;;;;;5074183;28;19908;-82
2022/08/19 14:05:11;;;;;;;;;;;29.70;92.80;;;;;;5074730;28;19958;-82
2022/08/19 14:07:37;;;;;;;;;;;29.70;91.50;;;;;;5074884;28;20121;-82
2022/08/19 14:10:06;;;;;;;;;;;29.80;91.00;;;;;;5074569;28;19913;-82
2022/08/19 14:12:32;;;;;;;;;;;29.80;87.60;;;;;;5074044;28;20004;-81
2022/08/19 14:14:58;;;;;;;;;;;29.90;86.70;;;;;;5073309;28;20017;-83
2022/08/19 14:17:24;;;;;;;;;;;29.90;88.90;;;;;;5072744;28;19919;-82
2022/08/19 14:19:55;;;;;;;;;;;30.00;86.70;;;;;;5071770;28;19912;-82
2022/08/19 14:22:21;;;;;;;;;;;30.10;84.50;;;;;;5073124;28;19908;-81
2022/08/19 14:24:47;;;;;;;;;;;30.30;84.30;;;;;;5068628;28;19936;-81
2022/08/19 14:27:13;;;;;;;;;;;30.40;82.90;;;;;;5052721;28;19974;-82
2022/08/19 14:29:38;;;;;;;;;;;30.50;82.70;;;;;;5053129;28;20002;-81
2022/08/19 14:32:04;;;;;;;;;;;30.70;85.20;;;;;;5052970;28;20044;-82
2022/08/19 14:34:31;;;;;;;;;;;30.70;80.30;;;;;;5058314;28;19917;-81
2022/08/19 14:36:57;;;;;;;;;;;30.90;80.20;;;;;;5058215;28;19916;-81